createdAt,value
2023-03-21T00:02:34.482Z,95468.81
2023-03-21T00:05:20.924Z,95476.00
2023-03-21T00:08:06.908Z,95472.03
2023-03-21T00:11:04.463Z,95473.13
2023-03-21T00:13:50.618Z,95469.94
2023-03-21T00:16:37.754Z,95472.63
2023-03-21T00:19:26.551Z,95479.63
2023-03-21T00:22:12.280Z,95472.03
2023-03-21T00:24:58.062Z,95459.00
2023-03-21T00:28:01.173Z,95458.41
2023-03-21T00:30:59.321Z,95460.00
2023-03-21T00:33:45.471Z,95456.06
2023-03-21T00:36:32.160Z,95452.75
2023-03-21T00:39:18.570Z,95454.38
2023-03-21T00:42:04.601Z,95448.47
2023-03-21T00:44:50.788Z,95439.56
2023-03-21T00:47:37.927Z,95439.41
2023-03-21T00:50:28.135Z,95435.69
2023-03-21T00:53:15.319Z,95434.41
2023-03-21T00:56:01.058Z,95420.72
2023-03-21T00:58:46.842Z,95408.81
2023-03-21T01:01:35.547Z,95409.44
2023-03-21T01:04:27.029Z,95405.63
2023-03-21T01:07:12.712Z,95404.63
2023-03-21T01:09:58.519Z,95407.03
2023-03-21T01:12:47.839Z,95405.13
2023-03-21T01:15:37.853Z,95395.44
2023-03-21T01:18:28.303Z,95404.63
2023-03-21T01:21:14.681Z,95397.63
2023-03-21T01:24:01.761Z,95401.94
2023-03-21T01:26:48.263Z,95399.34
2023-03-21T01:29:34.075Z,95392.38
2023-03-21T01:32:19.817Z,95393.56
2023-03-21T01:35:06.965Z,95393.38
2023-03-21T01:37:59.800Z,95399.72
2023-03-21T01:40:49.825Z,95410.69
2023-03-21T01:43:41.660Z,95406.72
2023-03-21T01:46:51.555Z,95400.50
2023-03-21T01:50:14.778Z,95397.50
2023-03-21T01:53:22.763Z,95392.50
2023-03-21T01:56:12.866Z,95404.09
2023-03-21T01:59:32.168Z,95403.94
2023-03-21T02:02:25.453Z,95394.72
2023-03-21T02:06:01.631Z,95399.34
2023-03-21T02:08:53.960Z,95390.13
2023-03-21T02:11:39.836Z,95385.84
2023-03-21T02:14:29.401Z,95381.94
2023-03-21T02:17:42.441Z,95380.78
2023-03-21T02:21:01.370Z,95385.16
2023-03-21T02:24:37.893Z,95388.66
2023-03-21T02:27:25.220Z,95389.97
2023-03-21T02:30:49.098Z,95390.97
2023-03-21T02:34:01.639Z,95379.56
2023-03-21T02:37:08.035Z,95385.44
2023-03-21T02:40:09.381Z,95392.13
2023-03-21T02:43:01.213Z,95387.84
2023-03-21T02:45:56.997Z,95393.53
2023-03-21T02:49:11.224Z,95389.66
2023-03-21T02:52:12.252Z,95385.66
2023-03-21T02:55:01.434Z,95380.41
2023-03-21T02:57:56.508Z,95385.59
2023-03-21T03:00:44.206Z,95376.19
2023-03-21T03:03:34.776Z,95376.19
2023-03-21T03:06:44.379Z,95387.00
2023-03-21T03:09:30.483Z,95392.38
2023-03-21T03:12:43.454Z,95383.00
2023-03-21T03:15:33.497Z,95381.59
2023-03-21T03:18:43.456Z,95378.41
2023-03-21T03:21:48.902Z,95380.50
2023-03-21T03:24:43.274Z,95371.00
2023-03-21T03:27:41.878Z,95374.00
2023-03-21T03:30:39.250Z,95380.88
2023-03-21T03:33:29.258Z,95376.09
2023-03-21T03:36:33.617Z,95375.78
2023-03-21T03:39:30.063Z,95377.22
2023-03-21T03:42:27.965Z,95380.41
2023-03-21T03:45:35.546Z,95361.03
2023-03-21T03:48:26.991Z,95367.50
2023-03-21T03:51:51.797Z,95366.91
2023-03-21T03:54:58.648Z,95360.03
2023-03-21T03:57:45.307Z,95371.81
2023-03-21T04:00:34.841Z,95366.22
2023-03-21T04:03:22.100Z,95367.81
2023-03-21T04:06:08.740Z,95367.31
2023-03-21T04:08:56.559Z,95369.22
2023-03-21T04:11:42.444Z,95374.59
2023-03-21T04:14:35.620Z,95373.63
2023-03-21T04:17:26.532Z,95373.00
2023-03-21T04:20:20.681Z,95379.03
2023-03-21T04:23:19.008Z,95375.81
2023-03-21T04:26:06.660Z,95371.03
2023-03-21T04:28:56.584Z,95350.69
2023-03-21T04:31:42.272Z,95363.53
2023-03-21T04:34:31.364Z,95368.44
2023-03-21T04:37:23.690Z,95376.22
2023-03-21T04:40:11.614Z,95365.44
2023-03-21T04:42:57.235Z,95371.03
2023-03-21T04:45:43.461Z,95367.81
2023-03-21T04:48:29.556Z,95374.53
2023-03-21T04:51:17.725Z,95373.22
2023-03-21T04:54:04.087Z,95373.22
2023-03-21T04:56:52.186Z,95374.22
2023-03-21T04:59:38.189Z,95373.22
2023-03-21T05:02:23.939Z,95370.81
2023-03-21T05:05:11.926Z,95372.25
2023-03-21T05:07:57.899Z,95378.63
2023-03-21T05:10:43.620Z,95392.59
2023-03-21T05:13:29.951Z,95394.19
2023-03-21T05:16:15.895Z,95390.19
2023-03-21T05:19:03.997Z,95397.41
2023-03-21T05:21:53.190Z,95397.41
2023-03-21T05:24:42.244Z,95393.59
2023-03-21T05:27:36.175Z,95390.41
2023-03-21T05:30:29.425Z,95395.22
2023-03-21T05:33:17.978Z,95392.97
2023-03-21T05:36:03.930Z,95388.22
2023-03-21T05:38:51.440Z,95393.09
2023-03-21T05:41:37.413Z,95395.97
2023-03-21T05:44:24.842Z,95389.81
2023-03-21T05:47:11.565Z,95393.97
2023-03-21T05:50:04.019Z,95395.78
2023-03-21T05:52:51.560Z,95385.16
2023-03-21T05:55:39.005Z,95385.16
2023-03-21T05:58:29.578Z,95378.19
2023-03-21T06:01:15.428Z,95382.19
2023-03-21T06:04:08.479Z,95383.97
2023-03-21T06:06:55.471Z,95385.56
2023-03-21T06:09:42.345Z,95381.66
2023-03-21T06:12:28.066Z,95379.31
2023-03-21T06:15:44.289Z,95391.81
2023-03-21T06:18:37.792Z,95391.06
2023-03-21T06:21:53.967Z,95380.44
2023-03-21T06:24:40.677Z,95388.34
2023-03-21T06:27:26.652Z,95379.78
2023-03-21T06:30:14.724Z,95377.16
2023-03-21T06:33:12.467Z,95384.50
2023-03-21T06:35:58.867Z,95384.88
2023-03-21T06:38:45.119Z,95373.94
2023-03-21T06:41:31.115Z,95372.56
2023-03-21T06:44:24.471Z,95388.06
2023-03-21T06:47:17.756Z,95386.53
2023-03-21T06:50:07.111Z,95392.59
2023-03-21T06:52:59.484Z,95393.56
2023-03-21T06:55:51.783Z,95381.53
2023-03-21T06:58:39.141Z,95383.59
2023-03-21T07:01:31.653Z,95387.47
2023-03-21T07:04:24.701Z,95394.31
2023-03-21T07:07:11.624Z,95383.69
2023-03-21T07:09:57.806Z,95388.94
2023-03-21T07:12:45.804Z,95397.41
2023-03-21T07:15:53.509Z,95396.16
2023-03-21T07:18:39.153Z,95391.22
2023-03-21T07:21:25.155Z,95381.50
2023-03-21T07:24:12.021Z,95376.59
2023-03-21T07:26:57.647Z,95389.19
2023-03-21T07:29:44.528Z,95383.94
2023-03-21T07:32:33.963Z,95382.38
2023-03-21T07:35:19.953Z,95378.41
2023-03-21T07:38:06.486Z,95381.75
2023-03-21T07:40:52.248Z,95379.69
2023-03-21T07:43:39.300Z,95381.59
2023-03-21T07:46:28.797Z,95376.53
2023-03-21T07:49:14.420Z,95377.81
2023-03-21T07:52:04.597Z,95377.50
2023-03-21T07:54:50.688Z,95384.84
2023-03-21T07:57:36.676Z,95372.09
2023-03-21T08:00:23.183Z,95376.38
2023-03-21T08:03:09.939Z,95381.47
2023-03-21T08:05:56.019Z,95368.69
2023-03-21T08:08:41.895Z,95371.41
2023-03-21T08:11:31.441Z,95382.53
2023-03-21T08:14:17.555Z,95380.47
2023-03-21T08:17:07.099Z,95382.97
2023-03-21T08:19:52.647Z,95371.97
2023-03-21T08:22:38.505Z,95372.28
2023-03-21T08:25:24.789Z,95364.63
2023-03-21T08:28:10.414Z,95365.56
2023-03-21T08:30:56.216Z,95375.13
2023-03-21T08:33:42.284Z,95368.13
2023-03-21T08:36:28.153Z,95370.63
2023-03-21T08:39:14.213Z,95367.13
2023-03-21T08:42:00.392Z,95377.47
2023-03-21T08:44:46.685Z,95363.91
2023-03-21T08:47:33.185Z,95372.81
2023-03-21T08:50:21.693Z,95364.63
2023-03-21T08:53:07.681Z,95360.28
2023-03-21T08:55:53.470Z,95368.75
2023-03-21T08:58:39.185Z,95360.22
2023-03-21T09:01:26.364Z,95353.13
2023-03-21T09:04:12.658Z,95360.09
2023-03-21T09:07:01.545Z,95352.72
2023-03-21T09:09:53.412Z,95340.53
2023-03-21T09:12:44.402Z,95336.94
2023-03-21T09:15:30.253Z,95339.47
2023-03-21T09:18:18.158Z,95336.66
2023-03-21T09:21:13.901Z,95327.66
2023-03-21T09:24:00.760Z,95321.69
2023-03-21T09:26:46.610Z,95321.13
2023-03-21T09:29:33.996Z,95322.19
2023-03-21T09:32:20.341Z,95330.94
2023-03-21T09:35:07.191Z,95325.25
2023-03-21T09:37:53.257Z,95321.88
2023-03-21T09:41:01.064Z,95332.25
2023-03-21T09:44:15.064Z,95330.09
2023-03-21T09:47:20.796Z,95316.19
2023-03-21T09:50:20.512Z,95318.13
2023-03-21T09:53:06.351Z,95320.09
2023-03-21T09:55:54.063Z,95311.47
2023-03-21T09:58:44.729Z,95313.75
2023-03-21T10:01:41.784Z,95311.94
2023-03-21T10:04:27.746Z,95304.88
2023-03-21T10:07:18.979Z,95304.09
2023-03-21T10:10:06.367Z,95297.41
2023-03-21T10:12:53.335Z,95288.34
2023-03-21T10:15:39.498Z,95286.59
2023-03-21T10:18:28.312Z,95281.03
2023-03-21T10:21:47.419Z,95281.13
2023-03-21T10:24:30.124Z,95280.91
2023-03-21T10:27:16.489Z,95264.19
2023-03-21T10:30:02.464Z,95268.94
2023-03-21T10:32:48.487Z,95264.41
2023-03-21T10:35:37.447Z,95264.69
2023-03-21T10:38:25.478Z,95255.69
2023-03-21T10:41:14.254Z,95253.31
2023-03-21T10:44:15.422Z,95252.84
2023-03-21T10:47:08.958Z,95250.38
2023-03-21T10:50:07.177Z,95230.06
2023-03-21T10:53:00.530Z,95232.44
2023-03-21T10:55:49.265Z,95225.28
2023-03-21T10:58:39.672Z,95229.69
2023-03-21T11:01:44.093Z,95232.91
2023-03-21T11:04:36.145Z,95225.13
2023-03-21T11:07:24.351Z,95221.34
2023-03-21T11:10:35.048Z,95215.94
2023-03-21T11:13:26.795Z,95219.50
2023-03-21T11:16:24.488Z,95216.59
2023-03-21T11:19:19.104Z,95225.88
2023-03-21T11:22:07.482Z,95223.84
2023-03-21T11:24:59.132Z,95222.28
2023-03-21T11:27:50.582Z,95212.72
2023-03-21T11:30:36.385Z,95226.69
2023-03-21T11:33:24.397Z,95218.44
2023-03-21T11:36:19.417Z,95214.34
2023-03-21T11:39:11.158Z,95213.22
2023-03-21T11:41:56.842Z,95208.44
2023-03-21T11:44:44.206Z,95202.22
2023-03-21T11:47:31.643Z,95199.81
2023-03-21T11:50:37.135Z,95209.03
2023-03-21T11:53:46.657Z,95202.59
2023-03-21T11:56:36.883Z,95189.22
2023-03-21T11:59:35.665Z,95199.56
2023-03-21T12:02:55.966Z,95201.25
2023-03-21T12:05:54.870Z,95193.34
2023-03-21T12:09:02.406Z,95198.34
2023-03-21T12:12:10.027Z,95188.81
2023-03-21T12:15:20.575Z,95199.94
2023-03-21T12:18:10.349Z,95189.38
2023-03-21T12:21:04.280Z,95192.44
2023-03-21T12:24:01.215Z,95195.16
2023-03-21T12:26:58.784Z,95185.19
2023-03-21T12:29:53.915Z,95186.09
2023-03-21T12:32:49.876Z,95190.84
2023-03-21T12:35:47.984Z,95182.00
2023-03-21T12:39:09.130Z,95175.44
2023-03-21T12:42:09.684Z,95179.03
2023-03-21T12:45:17.205Z,95173.38
2023-03-21T12:48:21.199Z,95162.69
2023-03-21T12:51:08.792Z,95167.56
2023-03-21T12:54:10.792Z,95167.75
2023-03-21T12:57:15.685Z,95164.34
2023-03-21T13:00:15.919Z,95171.84
2023-03-21T13:03:12.096Z,95172.59
2023-03-21T13:06:03.739Z,95162.16
2023-03-21T13:09:08.098Z,95155.69
2023-03-21T13:11:57.108Z,95155.00
2023-03-21T13:14:57.023Z,95152.63
2023-03-21T13:17:49.442Z,95147.19
2023-03-21T13:20:46.825Z,95151.50
2023-03-21T13:23:37.098Z,95144.13
2023-03-21T13:26:39.480Z,95133.91
2023-03-21T13:29:35.254Z,95147.38
2023-03-21T13:32:39.198Z,95149.44
2023-03-21T13:35:38.564Z,95146.03
2023-03-21T13:38:30.492Z,95146.91
2023-03-21T13:41:23.658Z,95144.63
2023-03-21T13:44:22.257Z,95138.50
2023-03-21T13:47:34.969Z,95135.78
2023-03-21T13:50:30.474Z,95133.84
2023-03-21T13:53:16.696Z,95131.00
2023-03-21T13:56:14.887Z,95128.97
2023-03-21T13:59:03.985Z,95130.38
2023-03-21T14:02:23.761Z,95128.00
2023-03-21T14:05:22.858Z,95117.41
2023-03-21T14:08:21.558Z,95118.56
2023-03-21T14:11:17.449Z,95112.22
2023-03-21T14:14:04.363Z,95118.38
2023-03-21T14:16:53.130Z,95112.91
2023-03-21T14:19:39.859Z,95109.84
2023-03-21T14:22:27.588Z,95114.50
2023-03-21T14:25:16.730Z,95093.66
2023-03-21T14:28:05.915Z,95105.88
2023-03-21T14:30:54.470Z,95110.44
2023-03-21T14:33:41.778Z,95098.66
2023-03-21T14:36:30.782Z,95106.28
2023-03-21T14:39:53.425Z,95099.16
2023-03-21T14:42:39.471Z,95098.94
2023-03-21T14:45:29.124Z,95092.38
2023-03-21T14:48:17.078Z,95085.59
2023-03-21T14:51:05.563Z,95086.16
2023-03-21T14:53:51.300Z,95095.28
2023-03-21T14:56:38.483Z,95080.91
2023-03-21T14:59:26.483Z,95094.16
2023-03-21T15:02:18.461Z,95093.19
2023-03-21T15:05:37.835Z,95102.47
2023-03-21T15:08:26.396Z,95097.03
2023-03-21T15:11:13.020Z,95086.38
2023-03-21T15:14:15.050Z,95100.09
2023-03-21T15:17:04.085Z,95098.38
2023-03-21T15:19:50.408Z,95103.94
2023-03-21T15:22:39.612Z,95108.47
2023-03-21T15:25:32.728Z,95097.06
2023-03-21T15:28:19.003Z,95106.78
2023-03-21T15:31:07.145Z,95102.03
2023-03-21T15:33:53.834Z,95092.53
2023-03-21T15:36:46.465Z,95097.19
2023-03-21T15:39:52.672Z,95101.38
2023-03-21T15:42:41.009Z,95097.28
2023-03-21T15:45:30.684Z,95100.69
2023-03-21T15:48:17.351Z,95102.16
2023-03-21T15:51:05.462Z,95104.41
2023-03-21T15:53:54.319Z,95106.91
2023-03-21T15:56:42.481Z,95097.03
2023-03-21T15:59:32.548Z,95106.31
2023-03-21T16:02:22.144Z,95107.81
2023-03-21T16:05:29.197Z,95097.28
2023-03-21T16:08:22.486Z,95100.00
2023-03-21T16:11:24.456Z,95109.28
2023-03-21T16:14:10.856Z,95113.13
2023-03-21T16:16:59.092Z,95117.44
2023-03-21T16:19:45.012Z,95112.34
2023-03-21T16:22:34.901Z,95109.16
2023-03-21T16:25:20.876Z,95106.78
2023-03-21T16:28:13.854Z,95105.19
2023-03-21T16:30:59.560Z,95107.00
2023-03-21T16:33:45.941Z,95108.59
2023-03-21T16:36:36.353Z,95105.75
2023-03-21T16:39:24.749Z,95109.94
2023-03-21T16:42:12.248Z,95112.88
2023-03-21T16:44:58.074Z,95104.75
2023-03-21T16:47:44.868Z,95109.72
2023-03-21T16:50:37.071Z,95114.34
2023-03-21T16:53:22.814Z,95108.31
2023-03-21T16:56:55.092Z,95111.84
2023-03-21T16:59:44.715Z,95114.91
2023-03-21T17:02:30.753Z,95112.41
2023-03-21T17:05:16.846Z,95111.47
2023-03-21T17:08:02.951Z,95117.22
2023-03-21T17:10:48.930Z,95116.81
2023-03-21T17:13:35.338Z,95114.41
2023-03-21T17:16:26.694Z,95116.66
2023-03-21T17:19:24.036Z,95121.19
2023-03-21T17:22:11.396Z,95128.88
2023-03-21T17:24:58.868Z,95118.69
2023-03-21T17:27:45.064Z,95126.03
2023-03-21T17:30:33.802Z,95132.47
2023-03-21T17:33:19.709Z,95131.66
2023-03-21T17:36:05.998Z,95136.28
2023-03-21T17:38:52.985Z,95140.81
2023-03-21T17:41:38.932Z,95133.66
2023-03-21T17:44:25.085Z,95138.97
2023-03-21T17:47:11.416Z,95140.56
2023-03-21T17:49:57.817Z,95146.34
2023-03-21T17:52:43.940Z,95142.84
2023-03-21T17:55:30.309Z,95147.00
2023-03-21T17:58:17.835Z,95150.84
2023-03-21T18:01:03.671Z,95152.75
2023-03-21T18:03:50.937Z,95158.19
2023-03-21T18:06:37.541Z,95164.25
2023-03-21T18:09:23.583Z,95163.44
2023-03-21T18:12:09.774Z,95164.88
2023-03-21T18:14:56.132Z,95163.31
2023-03-21T18:17:42.248Z,95159.34
2023-03-21T18:20:49.844Z,95169.41
2023-03-21T18:23:34.955Z,95174.38
2023-03-21T18:26:23.970Z,95168.38
2023-03-21T18:32:17.304Z,95170.72
2023-03-21T18:35:04.890Z,95173.91
2023-03-21T18:37:50.972Z,95172.78
2023-03-21T18:40:37.315Z,95184.91
2023-03-21T18:46:30.562Z,95188.72
2023-03-21T18:52:24.061Z,95194.00
2023-03-21T18:55:10.554Z,95192.63
2023-03-21T18:57:56.448Z,95192.63
2023-03-21T19:00:43.790Z,95194.56
2023-03-21T19:03:37.092Z,95192.81
2023-03-21T19:06:25.336Z,95191.91
2023-03-21T19:09:14.305Z,95195.75
2023-03-21T19:12:02.011Z,95199.91
2023-03-21T19:14:50.650Z,95198.63
2023-03-21T19:18:23.264Z,95187.31
2023-03-21T19:20:44.759Z,95196.13
2023-03-21T19:23:43.551Z,95197.56
2023-03-21T19:26:37.663Z,95205.25
2023-03-21T19:29:23.365Z,95195.84
2023-03-21T19:32:09.418Z,95191.09
2023-03-21T19:34:55.438Z,95201.00
2023-03-21T19:37:41.730Z,95201.00
2023-03-21T19:40:28.033Z,95190.00
2023-03-21T19:43:32.101Z,95198.19
2023-03-21T19:46:20.985Z,95197.25
2023-03-21T19:49:07.316Z,95204.94
2023-03-21T19:51:53.048Z,95199.03
2023-03-21T19:54:39.666Z,95206.06
2023-03-21T19:57:25.689Z,95209.41
2023-03-21T20:00:11.892Z,95201.81
2023-03-21T20:02:57.553Z,95210.84
2023-03-21T20:05:43.652Z,95205.94
2023-03-21T20:08:42.846Z,95216.16
2023-03-21T20:11:36.035Z,95220.94
2023-03-21T20:14:22.017Z,95220.63
2023-03-21T20:17:08.376Z,95210.41
2023-03-21T20:19:57.929Z,95215.84
2023-03-21T20:25:50.914Z,95214.91
2023-03-21T20:28:38.142Z,95210.63
2023-03-21T20:31:25.150Z,95216.47
2023-03-21T20:34:11.688Z,95215.56
2023-03-21T20:36:58.326Z,95216.81
2023-03-21T20:39:44.498Z,95211.72
2023-03-21T20:42:30.183Z,95213.97
2023-03-21T20:45:18.661Z,95209.50
2023-03-21T20:48:06.553Z,95205.63
2023-03-21T20:50:57.855Z,95211.06
2023-03-21T20:53:47.974Z,95205.50
2023-03-21T20:56:33.668Z,95204.06
2023-03-21T20:59:26.488Z,95214.44
2023-03-21T21:02:13.901Z,95212.38
2023-03-21T21:05:27.738Z,95207.13
2023-03-21T21:08:19.206Z,95216.03
2023-03-21T21:14:12.722Z,95207.31
2023-03-21T21:17:02.662Z,95211.13
2023-03-21T21:19:54.527Z,95216.56
2023-03-21T21:22:42.895Z,95209.06
2023-03-21T21:25:33.390Z,95220.91
2023-03-21T21:28:21.312Z,95220.75
2023-03-21T21:31:12.409Z,95212.78
2023-03-21T21:33:59.857Z,95210.84
2023-03-21T21:36:48.092Z,95213.09
2023-03-21T21:39:35.287Z,95215.34
2023-03-21T21:42:21.599Z,95216.31
2023-03-21T21:45:09.466Z,95218.53
2023-03-21T21:47:55.842Z,95217.25
2023-03-21T21:50:42.625Z,95218.41
2023-03-21T21:53:29.145Z,95218.41
2023-03-21T21:56:14.929Z,95227.63
2023-03-21T21:59:03.523Z,95225.72
2023-03-21T22:01:51.431Z,95217.91
2023-03-21T22:04:37.475Z,95222.38
2023-03-21T22:07:27.422Z,95232.56
2023-03-21T22:10:13.668Z,95227.16
2023-03-21T22:13:00.017Z,95234.00
2023-03-21T22:15:46.813Z,95233.19
2023-03-21T22:18:36.165Z,95235.44
2023-03-21T22:21:22.062Z,95237.19
2023-03-21T22:24:08.027Z,95231.31
2023-03-21T22:26:58.136Z,95247.53
2023-03-21T22:29:44.186Z,95240.53
2023-03-21T22:32:33.310Z,95238.16
2023-03-21T22:35:19.291Z,95236.56
2023-03-21T22:38:05.171Z,95234.16
2023-03-21T22:40:58.728Z,95233.69
2023-03-21T22:43:44.412Z,95230.97
2023-03-21T22:46:30.110Z,95231.78
2023-03-21T22:49:16.325Z,95224.63
2023-03-21T22:52:03.423Z,95222.72
2023-03-21T22:54:49.934Z,95219.22
2023-03-21T22:57:36.032Z,95223.19
2023-03-21T23:00:21.977Z,95225.56
2023-03-21T23:03:07.603Z,95220.81
2023-03-21T23:05:56.333Z,95217.00
2023-03-21T23:08:42.441Z,95222.41
2023-03-21T23:11:28.200Z,95223.19
2023-03-21T23:14:15.348Z,95214.44
2023-03-21T23:17:02.718Z,95216.03
2023-03-21T23:19:48.749Z,95211.91
2023-03-21T23:22:35.552Z,95211.44
2023-03-21T23:25:22.048Z,95204.56
2023-03-21T23:28:08.363Z,95202.19
2023-03-21T23:30:55.023Z,95212.88
2023-03-21T23:33:40.952Z,95209.69
2023-03-21T23:36:26.959Z,95215.72
2023-03-21T23:39:12.988Z,95210.16
2023-03-21T23:41:58.825Z,95212.72
2023-03-21T23:44:44.845Z,95228.44
2023-03-21T23:47:31.200Z,95217.31
2023-03-21T23:50:17.116Z,95219.84
2023-03-21T23:53:02.772Z,95212.69
2023-03-21T23:55:52.029Z,95212.22
2023-03-21T23:58:37.762Z,95205.84
